sensor_id;sensor_type;location;lat;lon;timestamp;temperature;humidity
32877;DHT22;19226;51.600;8.034;2022-07-05T00:00:21;19.30;99.90
32877;DHT22;19226;51.600;8.034;2022-07-05T00:02:50;19.20;99.90
32877;DHT22;19226;51.600;8.034;2022-07-05T00:05:17;19.00;99.90
32877;DHT22;19226;51.600;8.034;2022-07-05T00:07:43;19.00;99.90
32877;DHT22;19226;51.600;8.034;2022-07-05T00:10:10;19.00;99.90
32877;DHT22;19226;51.600;8.034;2022-07-05T00:12:40;19.00;99.90
32877;DHT22;19226;51.600;8.034;2022-07-05T00:15:26;18.90;99.90
32877;DHT22;19226;51.600;8.034;2022-07-05T00:17:56;18.80;99.90
32877;DHT22;19226;51.600;8.034;2022-07-05T00:20:23;18.60;99.90
32877;DHT22;19226;51.600;8.034;2022-07-05T00:22:50;18.60;99.90
32877;DHT22;19226;51.600;8.034;2022-07-05T00:25:18;18.60;99.90
32877;DHT22;19226;51.600;8.034;2022-07-05T00:27:45;18.60;99.90
32877;DHT22;19226;51.600;8.034;2022-07-05T00:30:31;18.50;99.90
32877;DHT22;19226;51.600;8.034;2022-07-05T00:32:59;18.60;99.90
32877;DHT22;19226;51.600;8.034;2022-07-05T00:35:26;18.50;99.90
32877;DHT22;19226;51.600;8.034;2022-07-05T00:37:53;18.50;99.90
32877;DHT22;19226;51.600;8.034;2022-07-05T00:40:20;18.40;99.90
32877;DHT22;19226;51.600;8.034;2022-07-05T00:42:47;18.40;99.90
32877;DHT22;19226;51.600;8.034;2022-07-05T00:45:16;18.30;99.90
32877;DHT22;19226;51.600;8.034;2022-07-05T00:47:43;18.30;99.90
32877;DHT22;19226;51.600;8.034;2022-07-05T00:50:10;18.30;99.90
32877;DHT22;19226;51.600;8.034;2022-07-05T00:52:37;18.40;99.90
32877;DHT22;19226;51.600;8.034;2022-07-05T00:55:05;18.30;99.90
32877;DHT22;19226;51.600;8.034;2022-07-05T00:57:33;18.30;99.90
32877;DHT22;19226;51.600;8.034;2022-07-05T01:00:00;18.30;99.90
32877;DHT22;19226;51.600;8.034;2022-07-05T01:02:27;18.30;99.90
32877;DHT22;19226;51.600;8.034;2022-07-05T01:04:57;18.20;99.90
32877;DHT22;19226;51.600;8.034;2022-07-05T01:07:25;18.20;99.90
32877;DHT22;19226;51.600;8.034;2022-07-05T01:09:51;18.30;99.90
32877;DHT22;19226;51.600;8.034;2022-07-05T01:12:21;18.20;99.90
32877;DHT22;19226;51.600;8.034;2022-07-05T01:14:48;18.20;99.90
32877;DHT22;19226;51.600;8.034;2022-07-05T01:17:16;18.10;99.90
32877;DHT22;19226;51.600;8.034;2022-07-05T01:19:43;18.10;99.90
32877;DHT22;19226;51.600;8.034;2022-07-05T01:22:18;18.00;99.90
32877;DHT22;19226;51.600;8.034;2022-07-05T01:24:49;17.90;99.90
32877;DHT22;19226;51.600;8.034;2022-07-05T01:27:18;17.80;99.90
32877;DHT22;19226;51.600;8.034;2022-07-05T01:29:45;17.70;99.90
32877;DHT22;19226;51.600;8.034;2022-07-05T01:32:13;17.70;99.90
32877;DHT22;19226;51.600;8.034;2022-07-05T01:34:40;17.60;99.90
32877;DHT22;19226;51.600;8.034;2022-07-05T01:37:08;17.50;99.90
32877;DHT22;19226;51.600;8.034;2022-07-05T01:39:34;17.50;99.90
32877;DHT22;19226;51.600;8.034;2022-07-05T01:42:01;17.50;99.90
32877;DHT22;19226;51.600;8.034;2022-07-05T01:44:27;17.40;99.90
32877;DHT22;19226;51.600;8.034;2022-07-05T01:47:00;17.40;99.90
32877;DHT22;19226;51.600;8.034;2022-07-05T01:49:32;17.40;99.90
32877;DHT22;19226;51.600;8.034;2022-07-05T01:52:07;17.30;99.90
32877;DHT22;19226;51.600;8.034;2022-07-05T01:54:37;17.20;99.90
32877;DHT22;19226;51.600;8.034;2022-07-05T01:57:11;17.20;99.90
32877;DHT22;19226;51.600;8.034;2022-07-05T01:59:38;17.20;99.90
32877;DHT22;19226;51.600;8.034;2022-07-05T02:02:06;17.20;99.90
32877;DHT22;19226;51.600;8.034;2022-07-05T02:04:35;17.20;99.90
32877;DHT22;19226;51.600;8.034;2022-07-05T02:07:06;17.20;99.90
32877;DHT22;19226;51.600;8.034;2022-07-05T02:09:33;17.20;99.90
32877;DHT22;19226;51.600;8.034;2022-07-05T02:12:05;17.20;99.90
32877;DHT22;19226;51.600;8.034;2022-07-05T02:14:33;17.20;99.90
32877;DHT22;19226;51.600;8.034;2022-07-05T02:17:05;17.20;99.90
32877;DHT22;19226;51.600;8.034;2022-07-05T02:19:32;17.20;99.90
32877;DHT22;19226;51.600;8.034;2022-07-05T02:22:03;17.10;99.90
32877;DHT22;19226;51.600;8.034;2022-07-05T02:24:33;17.10;99.90
32877;DHT22;19226;51.600;8.034;2022-07-05T02:27:10;17.10;99.90
32877;DHT22;19226;51.600;8.034;2022-07-05T02:29:42;17.10;99.90
32877;DHT22;19226;51.600;8.034;2022-07-05T02:32:14;17.00;99.90
32877;DHT22;19226;51.600;8.034;2022-07-05T02:34:40;17.00;99.90
32877;DHT22;19226;51.600;8.034;2022-07-05T02:37:06;17.00;99.90
32877;DHT22;19226;51.600;8.034;2022-07-05T02:39:43;17.00;99.90
32877;DHT22;19226;51.600;8.034;2022-07-05T02:42:15;17.00;99.90
32877;DHT22;19226;51.600;8.034;2022-07-05T02:44:45;16.90;99.90
32877;DHT22;19226;51.600;8.034;2022-07-05T02:47:13;16.70;99.90
32877;DHT22;19226;51.600;8.034;2022-07-05T02:49:41;16.60;99.90
32877;DHT22;19226;51.600;8.034;2022-07-05T02:52:07;16.50;99.90
32877;DHT22;19226;51.600;8.034;2022-07-05T02:54:38;16.40;99.90
32877;DHT22;19226;51.600;8.034;2022-07-05T02:57:06;16.30;99.90
32877;DHT22;19226;51.600;8.034;2022-07-05T02:59:34;16.30;99.90
32877;DHT22;19226;51.600;8.034;2022-07-05T03:02:01;16.40;99.90
32877;DHT22;19226;51.600;8.034;2022-07-05T03:04:28;16.30;99.90
32877;DHT22;19226;51.600;8.034;2022-07-05T03:06:59;16.30;99.90
32877;DHT22;19226;51.600;8.034;2022-07-05T03:09:29;16.20;99.90
32877;DHT22;19226;51.600;8.034;2022-07-05T03:12:01;16.10;99.90
32877;DHT22;19226;51.600;8.034;2022-07-05T03:14:29;16.00;99.90
32877;DHT22;19226;51.600;8.034;2022-07-05T03:16:55;16.00;99.90
32877;DHT22;19226;51.600;8.034;2022-07-05T03:19:22;16.00;99.90
32877;DHT22;19226;51.600;8.034;2022-07-05T03:21:50;16.10;99.90
32877;DHT22;19226;51.600;8.034;2022-07-05T03:24:16;16.00;99.90
32877;DHT22;19226;51.600;8.034;2022-07-05T03:26:46;16.00;99.90
32877;DHT22;19226;51.600;8.034;2022-07-05T03:29:14;16.10;99.90
32877;DHT22;19226;51.600;8.034;2022-07-05T03:32:01;16.00;99.90
32877;DHT22;19226;51.600;8.034;2022-07-05T03:34:29;15.90;99.90
32877;DHT22;19226;51.600;8.034;2022-07-05T03:37:00;15.90;99.90
32877;DHT22;19226;51.600;8.034;2022-07-05T03:39:27;15.90;99.90
32877;DHT22;19226;51.600;8.034;2022-07-05T03:42:01;15.90;99.90
32877;DHT22;19226;51.600;8.034;2022-07-05T03:44:34;15.90;99.90
32877;DHT22;19226;51.600;8.034;2022-07-05T03:47:05;16.00;99.90
32877;DHT22;19226;51.600;8.034;2022-07-05T03:49:32;16.00;99.90
32877;DHT22;19226;51.600;8.034;2022-07-05T03:51:59;16.00;99.90
32877;DHT22;19226;51.600;8.034;2022-07-05T03:54:26;16.00;99.90
32877;DHT22;19226;51.600;8.034;2022-07-05T03:56:54;16.00;99.90
32877;DHT22;19226;51.600;8.034;2022-07-05T03:59:25;16.10;99.90
32877;DHT22;19226;51.600;8.034;2022-07-05T04:01:51;16.10;99.90
32877;DHT22;19226;51.600;8.034;2022-07-05T04:04:24;16.10;99.90
32877;DHT22;19226;51.600;8.034;2022-07-05T04:06:51;16.20;99.90
32877;DHT22;19226;51.600;8.034;2022-07-05T04:09:18;16.20;99.90
32877;DHT22;19226;51.600;8.034;2022-07-05T04:11:46;16.20;99.90
32877;DHT22;19226;51.600;8.034;2022-07-05T04:14:15;16.30;99.90
32877;DHT22;19226;51.600;8.034;2022-07-05T04:16:42;16.30;99.90
32877;DHT22;19226;51.600;8.034;2022-07-05T04:19:08;16.30;99.90
32877;DHT22;19226;51.600;8.034;2022-07-05T04:21:37;16.40;99.90
32877;DHT22;19226;51.600;8.034;2022-07-05T04:24:11;16.40;99.90
32877;DHT22;19226;51.600;8.034;2022-07-05T04:26:38;16.40;99.90
32877;DHT22;19226;51.600;8.034;2022-07-05T04:29:06;16.40;99.90
32877;DHT22;19226;51.600;8.034;2022-07-05T04:31:41;16.50;99.90
32877;DHT22;19226;51.600;8.034;2022-07-05T04:34:08;16.40;99.90
32877;DHT22;19226;51.600;8.034;2022-07-05T04:36:38;16.40;99.90
32877;DHT22;19226;51.600;8.034;2022-07-05T04:39:07;16.40;99.90
32877;DHT22;19226;51.600;8.034;2022-07-05T04:41:36;16.50;99.90
32877;DHT22;19226;51.600;8.034;2022-07-05T04:44:06;16.50;99.90
32877;DHT22;19226;51.600;8.034;2022-07-05T04:46:36;16.60;99.90
32877;DHT22;19226;51.600;8.034;2022-07-05T04:49:02;16.70;99.90
32877;DHT22;19226;51.600;8.034;2022-07-05T04:51:35;16.70;99.90
32877;DHT22;19226;51.600;8.034;2022-07-05T04:54:01;16.90;99.90
32877;DHT22;19226;51.600;8.034;2022-07-05T04:56:28;17.00;99.90
32877;DHT22;19226;51.600;8.034;2022-07-05T04:58:54;17.00;99.90
32877;DHT22;19226;51.600;8.034;2022-07-05T05:01:21;17.00;99.90
32877;DHT22;19226;51.600;8.034;2022-07-05T05:03:48;17.00;99.90
32877;DHT22;19226;51.600;8.034;2022-07-05T05:06:14;17.00;99.90
32877;DHT22;19226;51.600;8.034;2022-07-05T05:08:41;17.00;99.90
32877;DHT22;19226;51.600;8.034;2022-07-05T05:11:08;17.10;99.90
32877;DHT22;19226;51.600;8.034;2022-07-05T05:13:35;17.10;99.90
32877;DHT22;19226;51.600;8.034;2022-07-05T05:16:01;17.10;99.90
32877;DHT22;19226;51.600;8.034;2022-07-05T05:18:28;17.20;99.90
32877;DHT22;19226;51.600;8.034;2022-07-05T05:20:55;17.20;99.90
32877;DHT22;19226;51.600;8.034;2022-07-05T05:23:26;17.20;99.90
32877;DHT22;19226;51.600;8.034;2022-07-05T05:25:58;17.30;99.90
32877;DHT22;19226;51.600;8.034;2022-07-05T05:28:24;17.30;99.90
32877;DHT22;19226;51.600;8.034;2022-07-05T05:30:51;17.40;99.90
32877;DHT22;19226;51.600;8.034;2022-07-05T05:33:24;17.40;99.90
32877;DHT22;19226;51.600;8.034;2022-07-05T05:35:52;17.60;99.90
32877;DHT22;19226;51.600;8.034;2022-07-05T05:38:19;17.70;99.90
32877;DHT22;19226;51.600;8.034;2022-07-05T05:40:48;17.80;99.90
32877;DHT22;19226;51.600;8.034;2022-07-05T05:43:14;17.90;99.90
32877;DHT22;19226;51.600;8.034;2022-07-05T05:45:43;17.90;99.90
32877;DHT22;19226;51.600;8.034;2022-07-05T05:48:09;18.00;99.90
32877;DHT22;19226;51.600;8.034;2022-07-05T05:50:37;18.00;99.90
32877;DHT22;19226;51.600;8.034;2022-07-05T05:53:07;18.00;99.90
32877;DHT22;19226;51.600;8.034;2022-07-05T05:55:36;18.10;99.90
32877;DHT22;19226;51.600;8.034;2022-07-05T05:58:18;18.20;99.90
32877;DHT22;19226;51.600;8.034;2022-07-05T06:00:49;18.00;99.90
32877;DHT22;19226;51.600;8.034;2022-07-05T06:03:26;18.00;99.90
32877;DHT22;19226;51.600;8.034;2022-07-05T06:05:56;18.20;99.90
32877;DHT22;19226;51.600;8.034;2022-07-05T06:08:22;18.30;99.90
32877;DHT22;19226;51.600;8.034;2022-07-05T06:10:49;18.50;99.90
32877;DHT22;19226;51.600;8.034;2022-07-05T06:13:16;18.60;99.90
32877;DHT22;19226;51.600;8.034;2022-07-05T06:15:43;18.70;99.90
32877;DHT22;19226;51.600;8.034;2022-07-05T06:18:28;18.80;99.90
32877;DHT22;19226;51.600;8.034;2022-07-05T06:20:54;18.90;99.90
32877;DHT22;19226;51.600;8.034;2022-07-05T06:23:21;19.00;99.90
32877;DHT22;19226;51.600;8.034;2022-07-05T06:25:51;19.10;99.90
32877;DHT22;19226;51.600;8.034;2022-07-05T06:28:17;19.10;99.90
32877;DHT22;19226;51.600;8.034;2022-07-05T06:30:43;19.10;99.90
32877;DHT22;19226;51.600;8.034;2022-07-05T06:33:28;19.10;99.90
32877;DHT22;19226;51.600;8.034;2022-07-05T06:35:57;19.30;99.90
32877;DHT22;19226;51.600;8.034;2022-07-05T06:38:23;19.30;99.90
32877;DHT22;19226;51.600;8.034;2022-07-05T06:40:52;19.30;99.90
32877;DHT22;19226;51.600;8.034;2022-07-05T06:43:19;19.40;99.90
32877;DHT22;19226;51.600;8.034;2022-07-05T06:46:15;19.50;99.90
32877;DHT22;19226;51.600;8.034;2022-07-05T06:48:41;19.60;99.90
32877;DHT22;19226;51.600;8.034;2022-07-05T06:51:07;19.80;99.90
32877;DHT22;19226;51.600;8.034;2022-07-05T06:53:33;20.00;99.90
32877;DHT22;19226;51.600;8.034;2022-07-05T06:56:04;20.00;99.90
32877;DHT22;19226;51.600;8.034;2022-07-05T06:58:30;20.10;99.90
32877;DHT22;19226;51.600;8.034;2022-07-05T07:00:59;20.10;99.90
32877;DHT22;19226;51.600;8.034;2022-07-05T07:03:25;20.20;99.90
32877;DHT22;19226;51.600;8.034;2022-07-05T07:05:52;20.40;99.90
32877;DHT22;19226;51.600;8.034;2022-07-05T07:08:18;20.60;99.90
32877;DHT22;19226;51.600;8.034;2022-07-05T07:11:04;20.60;99.90
32877;DHT22;19226;51.600;8.034;2022-07-05T07:13:30;20.80;99.90
32877;DHT22;19226;51.600;8.034;2022-07-05T07:15:57;20.90;99.90
32877;DHT22;19226;51.600;8.034;2022-07-05T07:18:27;21.00;99.90
32877;DHT22;19226;51.600;8.034;2022-07-05T07:20:55;21.00;99.90
32877;DHT22;19226;51.600;8.034;2022-07-05T07:23:21;21.00;99.90
32877;DHT22;19226;51.600;8.034;2022-07-05T07:25:50;21.10;99.90
32877;DHT22;19226;51.600;8.034;2022-07-05T07:28:19;21.20;99.90
32877;DHT22;19226;51.600;8.034;2022-07-05T07:30:45;21.20;99.90
32877;DHT22;19226;51.600;8.034;2022-07-05T07:33:13;21.30;99.90
32877;DHT22;19226;51.600;8.034;2022-07-05T07:35:39;21.40;99.90
32877;DHT22;19226;51.600;8.034;2022-07-05T07:38:38;21.50;99.90
32877;DHT22;19226;51.600;8.034;2022-07-05T07:41:04;21.60;99.90
32877;DHT22;19226;51.600;8.034;2022-07-05T07:43:30;21.70;99.90
32877;DHT22;19226;51.600;8.034;2022-07-05T07:45:56;21.90;99.90
32877;DHT22;19226;51.600;8.034;2022-07-05T07:48:27;22.00;99.90
32877;DHT22;19226;51.600;8.034;2022-07-05T07:50:57;22.10;99.90
32877;DHT22;19226;51.600;8.034;2022-07-05T07:53:23;22.20;99.90
32877;DHT22;19226;51.600;8.034;2022-07-05T07:55:50;22.30;99.90
32877;DHT22;19226;51.600;8.034;2022-07-05T07:58:18;22.40;99.90
32877;DHT22;19226;51.600;8.034;2022-07-05T08:00:46;22.50;99.90
32877;DHT22;19226;51.600;8.034;2022-07-05T08:03:15;22.50;99.90
32877;DHT22;19226;51.600;8.034;2022-07-05T08:05:46;22.60;99.90
32877;DHT22;19226;51.600;8.034;2022-07-05T08:08:13;22.80;99.90
32877;DHT22;19226;51.600;8.034;2022-07-05T08:10:41;22.90;99.90
32877;DHT22;19226;51.600;8.034;2022-07-05T08:13:08;23.00;99.90
32877;DHT22;19226;51.600;8.034;2022-07-05T08:15:36;23.10;99.90
32877;DHT22;19226;51.600;8.034;2022-07-05T08:18:05;23.10;99.90
32877;DHT22;19226;51.600;8.034;2022-07-05T08:20:50;23.10;99.90
32877;DHT22;19226;51.600;8.034;2022-07-05T08:23:39;23.20;99.90
32877;DHT22;19226;51.600;8.034;2022-07-05T08:26:09;23.40;99.90
32877;DHT22;19226;51.600;8.034;2022-07-05T08:28:36;23.60;99.90
32877;DHT22;19226;51.600;8.034;2022-07-05T08:31:05;23.70;99.90
32877;DHT22;19226;51.600;8.034;2022-07-05T08:33:33;23.80;99.90
32877;DHT22;19226;51.600;8.034;2022-07-05T08:35:59;23.70;99.90
32877;DHT22;19226;51.600;8.034;2022-07-05T08:38:28;23.70;99.90
32877;DHT22;19226;51.600;8.034;2022-07-05T08:40:56;23.60;99.90
32877;DHT22;19226;51.600;8.034;2022-07-05T08:43:23;23.70;99.90
32877;DHT22;19226;51.600;8.034;2022-07-05T08:45:54;23.60;99.90
32877;DHT22;19226;51.600;8.034;2022-07-05T08:48:21;23.70;99.90
32877;DHT22;19226;51.600;8.034;2022-07-05T08:50:48;23.80;99.90
32877;DHT22;19226;51.600;8.034;2022-07-05T08:53:18;23.80;99.90
32877;DHT22;19226;51.600;8.034;2022-07-05T08:55:46;24.10;99.90
32877;DHT22;19226;51.600;8.034;2022-07-05T08:58:13;23.80;99.90
32877;DHT22;19226;51.600;8.034;2022-07-05T09:00:42;23.80;99.90
32877;DHT22;19226;51.600;8.034;2022-07-05T09:03:19;23.90;99.90
32877;DHT22;19226;51.600;8.034;2022-07-05T09:05:49;24.20;99.90
32877;DHT22;19226;51.600;8.034;2022-07-05T09:08:16;24.40;99.90
32877;DHT22;19226;51.600;8.034;2022-07-05T09:10:43;24.60;99.90
32877;DHT22;19226;51.600;8.034;2022-07-05T09:13:11;24.70;99.90
32877;DHT22;19226;51.600;8.034;2022-07-05T09:15:40;24.80;99.90
32877;DHT22;19226;51.600;8.034;2022-07-05T09:18:06;24.80;99.90
32877;DHT22;19226;51.600;8.034;2022-07-05T09:20:33;24.90;99.90
32877;DHT22;19226;51.600;8.034;2022-07-05T09:22:59;25.10;99.90
32877;DHT22;19226;51.600;8.034;2022-07-05T09:25:28;25.30;99.90
32877;DHT22;19226;51.600;8.034;2022-07-05T09:28:03;25.50;99.90
32877;DHT22;19226;51.600;8.034;2022-07-05T09:30:38;25.60;99.90
32877;DHT22;19226;51.600;8.034;2022-07-05T09:33:11;25.50;99.90
32877;DHT22;19226;51.600;8.034;2022-07-05T09:35:40;25.40;99.90
32877;DHT22;19226;51.600;8.034;2022-07-05T09:38:18;25.40;99.90
32877;DHT22;19226;51.600;8.034;2022-07-05T09:40:52;25.30;99.90
32877;DHT22;19226;51.600;8.034;2022-07-05T09:43:28;25.50;99.90
32877;DHT22;19226;51.600;8.034;2022-07-05T09:46:04;25.50;99.90
32877;DHT22;19226;51.600;8.034;2022-07-05T09:48:31;25.50;99.90
32877;DHT22;19226;51.600;8.034;2022-07-05T09:51:19;25.70;99.90
32877;DHT22;19226;51.600;8.034;2022-07-05T09:53:55;26.00;99.90
32877;DHT22;19226;51.600;8.034;2022-07-05T09:56:25;26.00;99.90
32877;DHT22;19226;51.600;8.034;2022-07-05T09:58:55;26.00;99.90
32877;DHT22;19226;51.600;8.034;2022-07-05T10:01:32;26.10;99.90
32877;DHT22;19226;51.600;8.034;2022-07-05T10:04:01;26.20;99.90
32877;DHT22;19226;51.600;8.034;2022-07-05T10:06:36;26.40;99.90
32877;DHT22;19226;51.600;8.034;2022-07-05T10:09:05;26.50;99.90
32877;DHT22;19226;51.600;8.034;2022-07-05T10:11:31;26.50;99.90
32877;DHT22;19226;51.600;8.034;2022-07-05T10:14:03;26.20;99.90
32877;DHT22;19226;51.600;8.034;2022-07-05T10:16:48;26.20;99.90
32877;DHT22;19226;51.600;8.034;2022-07-05T10:19:21;26.40;99.90
32877;DHT22;19226;51.600;8.034;2022-07-05T10:21:55;26.60;99.90
32877;DHT22;19226;51.600;8.034;2022-07-05T10:24:28;26.80;99.90
32877;DHT22;19226;51.600;8.034;2022-07-05T10:26:57;27.00;99.90
32877;DHT22;19226;51.600;8.034;2022-07-05T10:29:26;27.20;99.90
32877;DHT22;19226;51.600;8.034;2022-07-05T10:32:02;27.40;99.90
32877;DHT22;19226;51.600;8.034;2022-07-05T10:34:32;27.50;99.90
32877;DHT22;19226;51.600;8.034;2022-07-05T10:37:01;27.80;99.90
32877;DHT22;19226;51.600;8.034;2022-07-05T10:39:30;27.90;99.90
32877;DHT22;19226;51.600;8.034;2022-07-05T10:41:56;28.10;99.90
32877;DHT22;19226;51.600;8.034;2022-07-05T10:44:43;28.20;99.90
32877;DHT22;19226;51.600;8.034;2022-07-05T10:47:10;28.20;96.60
32877;DHT22;19226;51.600;8.034;2022-07-05T10:49:38;28.10;99.00
32877;DHT22;19226;51.600;8.034;2022-07-05T10:52:05;27.90;98.50
32877;DHT22;19226;51.600;8.034;2022-07-05T10:55:22;27.90;99.90
32877;DHT22;19226;51.600;8.034;2022-07-05T10:58:22;27.70;97.60
32877;DHT22;19226;51.600;8.034;2022-07-05T11:04:25;28.30;95.60
32877;DHT22;19226;51.600;8.034;2022-07-05T11:06:27;28.20;93.10
32877;DHT22;19226;51.600;8.034;2022-07-05T11:11:35;27.60;93.90
32877;DHT22;19226;51.600;8.034;2022-07-05T11:22:39;27.70;93.70
32877;DHT22;19226;51.600;8.034;2022-07-05T11:25:10;27.90;95.40
32877;DHT22;19226;51.600;8.034;2022-07-05T11:28:04;27.80;94.60
32877;DHT22;19226;51.600;8.034;2022-07-05T11:33:34;27.90;94.70
32877;DHT22;19226;51.600;8.034;2022-07-05T11:36:04;28.10;94.60
32877;DHT22;19226;51.600;8.034;2022-07-05T11:38:42;27.80;94.50
32877;DHT22;19226;51.600;8.034;2022-07-05T11:41:22;27.80;93.90
32877;DHT22;19226;51.600;8.034;2022-07-05T11:43:56;27.90;94.50
32877;DHT22;19226;51.600;8.034;2022-07-05T11:46:25;27.80;92.90
32877;DHT22;19226;51.600;8.034;2022-07-05T11:48:52;27.60;93.20
32877;DHT22;19226;51.600;8.034;2022-07-05T11:51:22;27.80;93.50
32877;DHT22;19226;51.600;8.034;2022-07-05T11:53:51;28.10;93.40
32877;DHT22;19226;51.600;8.034;2022-07-05T11:56:17;28.20;93.10
32877;DHT22;19226;51.600;8.034;2022-07-05T11:58:44;28.30;92.30
32877;DHT22;19226;51.600;8.034;2022-07-05T12:01:11;28.30;91.70
32877;DHT22;19226;51.600;8.034;2022-07-05T12:03:38;28.40;91.40
32877;DHT22;19226;51.600;8.034;2022-07-05T12:06:12;28.30;92.00
32877;DHT22;19226;51.600;8.034;2022-07-05T12:08:41;28.10;92.00
32877;DHT22;19226;51.600;8.034;2022-07-05T12:11:12;28.00;89.70
32877;DHT22;19226;51.600;8.034;2022-07-05T12:13:57;27.60;91.40
32877;DHT22;19226;51.600;8.034;2022-07-05T12:16:24;27.80;91.90
32877;DHT22;19226;51.600;8.034;2022-07-05T12:18:52;28.10;89.20
32877;DHT22;19226;51.600;8.034;2022-07-05T12:21:19;28.10;91.10
32877;DHT22;19226;51.600;8.034;2022-07-05T12:23:47;28.20;91.00
32877;DHT22;19226;51.600;8.034;2022-07-05T12:26:18;27.90;90.00
32877;DHT22;19226;51.600;8.034;2022-07-05T12:28:46;27.90;90.70
32877;DHT22;19226;51.600;8.034;2022-07-05T12:34:18;27.70;83.40
32877;DHT22;19226;51.600;8.034;2022-07-05T12:36:48;27.60;89.00
32877;DHT22;19226;51.600;8.034;2022-07-05T12:39:17;27.90;90.40
32877;DHT22;19226;51.600;8.034;2022-07-05T12:41:47;28.10;90.00
32877;DHT22;19226;51.600;8.034;2022-07-05T12:44:20;28.30;86.60
32877;DHT22;19226;51.600;8.034;2022-07-05T12:46:48;28.20;83.00
32877;DHT22;19226;51.600;8.034;2022-07-05T12:49:18;28.00;83.90
32877;DHT22;19226;51.600;8.034;2022-07-05T12:51:46;28.00;88.60
32877;DHT22;19226;51.600;8.034;2022-07-05T12:54:23;28.20;88.40
32877;DHT22;19226;51.600;8.034;2022-07-05T12:57:08;28.30;83.40
32877;DHT22;19226;51.600;8.034;2022-07-05T13:00:03;28.20;85.70
32877;DHT22;19226;51.600;8.034;2022-07-05T13:02:42;27.60;83.10
32877;DHT22;19226;51.600;8.034;2022-07-05T13:05:30;27.80;84.60
32877;DHT22;19226;51.600;8.034;2022-07-05T13:08:00;27.90;87.30
32877;DHT22;19226;51.600;8.034;2022-07-05T13:10:29;28.30;86.60
32877;DHT22;19226;51.600;8.034;2022-07-05T13:13:01;28.50;82.30
32877;DHT22;19226;51.600;8.034;2022-07-05T13:15:27;28.30;79.60
32877;DHT22;19226;51.600;8.034;2022-07-05T13:17:55;28.30;81.90
32877;DHT22;19226;51.600;8.034;2022-07-05T13:20:29;28.30;78.40
32877;DHT22;19226;51.600;8.034;2022-07-05T13:22:58;28.30;77.90
32877;DHT22;19226;51.600;8.034;2022-07-05T13:25:28;28.40;80.40
32877;DHT22;19226;51.600;8.034;2022-07-05T13:27:58;28.50;82.40
32877;DHT22;19226;51.600;8.034;2022-07-05T13:30:25;28.30;85.50
32877;DHT22;19226;51.600;8.034;2022-07-05T13:32:51;28.10;83.00
32877;DHT22;19226;51.600;8.034;2022-07-05T13:35:18;27.90;82.40
32877;DHT22;19226;51.600;8.034;2022-07-05T13:37:45;27.90;85.00
32877;DHT22;19226;51.600;8.034;2022-07-05T13:40:12;28.10;87.10
32877;DHT22;19226;51.600;8.034;2022-07-05T13:42:39;28.40;86.10
32877;DHT22;19226;51.600;8.034;2022-07-05T13:45:07;28.50;81.80
32877;DHT22;19226;51.600;8.034;2022-07-05T13:47:36;28.10;83.40
32877;DHT22;19226;51.600;8.034;2022-07-05T13:50:12;28.40;86.50
32877;DHT22;19226;51.600;8.034;2022-07-05T13:53:08;28.80;85.40
32877;DHT22;19226;51.600;8.034;2022-07-05T13:55:34;29.10;84.60
32877;DHT22;19226;51.600;8.034;2022-07-05T13:58:09;29.40;84.90
32877;DHT22;19226;51.600;8.034;2022-07-05T14:00:43;29.50;83.00
32877;DHT22;19226;51.600;8.034;2022-07-05T14:03:11;29.40;83.00
32877;DHT22;19226;51.600;8.034;2022-07-05T14:05:38;29.60;84.10
32877;DHT22;19226;51.600;8.034;2022-07-05T14:08:09;29.70;80.40
32877;DHT22;19226;51.600;8.034;2022-07-05T14:10:39;29.90;80.40
32877;DHT22;19226;51.600;8.034;2022-07-05T14:13:08;29.70;80.10
32877;DHT22;19226;51.600;8.034;2022-07-05T14:15:42;29.90;78.10
32877;DHT22;19226;51.600;8.034;2022-07-05T14:18:08;30.00;76.80
32877;DHT22;19226;51.600;8.034;2022-07-05T14:20:34;30.10;75.00
32877;DHT22;19226;51.600;8.034;2022-07-05T14:23:10;30.10;77.50
32877;DHT22;19226;51.600;8.034;2022-07-05T14:25:40;30.10;73.80
32877;DHT22;19226;51.600;8.034;2022-07-05T14:28:07;30.10;73.60
32877;DHT22;19226;51.600;8.034;2022-07-05T14:30:38;30.00;75.50
32877;DHT22;19226;51.600;8.034;2022-07-05T14:33:04;29.80;74.00
32877;DHT22;19226;51.600;8.034;2022-07-05T14:35:33;29.40;72.40
32877;DHT22;19226;51.600;8.034;2022-07-05T14:37:59;29.20;75.50
32877;DHT22;19226;51.600;8.034;2022-07-05T14:40:27;29.40;74.30
32877;DHT22;19226;51.600;8.034;2022-07-05T14:42:57;29.40;75.00
32877;DHT22;19226;51.600;8.034;2022-07-05T14:45:26;29.40;70.90
32877;DHT22;19226;51.600;8.034;2022-07-05T14:47:56;29.20;74.10
32877;DHT22;19226;51.600;8.034;2022-07-05T14:50:22;29.20;75.00
32877;DHT22;19226;51.600;8.034;2022-07-05T14:52:49;29.20;74.20
32877;DHT22;19226;51.600;8.034;2022-07-05T14:55:16;29.40;76.40
32877;DHT22;19226;51.600;8.034;2022-07-05T14:57:43;29.30;72.50
32877;DHT22;19226;51.600;8.034;2022-07-05T15:00:12;29.30;73.50
32877;DHT22;19226;51.600;8.034;2022-07-05T15:02:39;29.40;74.10
32877;DHT22;19226;51.600;8.034;2022-07-05T15:05:07;29.40;74.30
32877;DHT22;19226;51.600;8.034;2022-07-05T15:07:33;29.20;78.10
32877;DHT22;19226;51.600;8.034;2022-07-05T15:10:01;29.60;78.90
32877;DHT22;19226;51.600;8.034;2022-07-05T15:12:30;30.00;75.70
32877;DHT22;19226;51.600;8.034;2022-07-05T15:14:58;30.10;75.80
32877;DHT22;19226;51.600;8.034;2022-07-05T15:17:24;30.00;73.70
32877;DHT22;19226;51.600;8.034;2022-07-05T15:19:52;30.10;74.30
32877;DHT22;19226;51.600;8.034;2022-07-05T15:22:21;30.20;74.40
32877;DHT22;19226;51.600;8.034;2022-07-05T15:24:53;29.90;71.60
32877;DHT22;19226;51.600;8.034;2022-07-05T15:27:22;29.70;72.30
32877;DHT22;19226;51.600;8.034;2022-07-05T15:29:48;29.60;72.50
32877;DHT22;19226;51.600;8.034;2022-07-05T15:32:15;29.40;74.40
32877;DHT22;19226;51.600;8.034;2022-07-05T15:34:42;29.70;75.40
32877;DHT22;19226;51.600;8.034;2022-07-05T15:37:08;29.60;73.90
32877;DHT22;19226;51.600;8.034;2022-07-05T15:39:53;29.70;75.20
32877;DHT22;19226;51.600;8.034;2022-07-05T15:42:20;30.10;74.90
32877;DHT22;19226;51.600;8.034;2022-07-05T15:44:47;30.20;75.20
32877;DHT22;19226;51.600;8.034;2022-07-05T15:47:13;29.60;74.60
32877;DHT22;19226;51.600;8.034;2022-07-05T15:49:41;29.20;76.90
32877;DHT22;19226;51.600;8.034;2022-07-05T15:52:07;29.20;79.20
32877;DHT22;19226;51.600;8.034;2022-07-05T15:54:36;28.90;78.80
32877;DHT22;19226;51.600;8.034;2022-07-05T15:57:04;28.90;79.50
32877;DHT22;19226;51.600;8.034;2022-07-05T15:59:31;29.00;79.80
32877;DHT22;19226;51.600;8.034;2022-07-05T16:01:58;28.90;78.80
32877;DHT22;19226;51.600;8.034;2022-07-05T16:04:24;28.60;79.70
32877;DHT22;19226;51.600;8.034;2022-07-05T16:06:58;28.60;80.60